sensor_id;sensor_type;location;lat;lon;timestamp;P1;durP1;ratioP1;P2;durP2;ratioP2
22068;SDS011;13887;57.196;-2.100;2022-08-19T00:01:40;11.53;;;11.03;;
22068;SDS011;13887;57.196;-2.100;2022-08-19T00:04:09;11.73;;;11.23;;
22068;SDS011;13887;57.196;-2.100;2022-08-19T00:06:38;12.03;;;11.60;;
22068;SDS011;13887;57.196;-2.100;2022-08-19T00:09:07;11.60;;;11.10;;
22068;SDS011;13887;57.196;-2.100;2022-08-19T00:11:36;11.77;;;11.27;;
22068;SDS011;13887;57.196;-2.100;2022-08-19T00:14:05;11.70;;;11.30;;
22068;SDS011;13887;57.196;-2.100;2022-08-19T00:16:35;12.50;;;11.90;;
22068;SDS011;13887;57.196;-2.100;2022-08-19T00:19:03;12.30;;;11.80;;
22068;SDS011;13887;57.196;-2.100;2022-08-19T00:21:30;12.67;;;11.90;;
22068;SDS011;13887;57.196;-2.100;2022-08-19T00:23:57;12.27;;;11.47;;
22068;SDS011;13887;57.196;-2.100;2022-08-19T00:26:26;11.97;;;11.47;;
22068;SDS011;13887;57.196;-2.100;2022-08-19T00:28:54;12.70;;;12.10;;
22068;SDS011;13887;57.196;-2.100;2022-08-19T00:31:22;12.40;;;11.80;;
22068;SDS011;13887;57.196;-2.100;2022-08-19T00:33:49;12.83;;;12.33;;
22068;SDS011;13887;57.196;-2.100;2022-08-19T00:36:16;12.90;;;12.03;;
22068;SDS011;13887;57.196;-2.100;2022-08-19T00:38:44;12.50;;;11.90;;
22068;SDS011;13887;57.196;-2.100;2022-08-19T00:41:15;12.53;;;12.03;;
22068;SDS011;13887;57.196;-2.100;2022-08-19T00:46:48;12.53;;;11.93;;
22068;SDS011;13887;57.196;-2.100;2022-08-19T00:49:45;13.03;;;12.20;;
22068;SDS011;13887;57.196;-2.100;2022-08-19T00:52:22;12.40;;;11.80;;
22068;SDS011;13887;57.196;-2.100;2022-08-19T00:54:55;13.23;;;12.43;;
22068;SDS011;13887;57.196;-2.100;2022-08-19T00:57:28;13.37;;;12.67;;
22068;SDS011;13887;57.196;-2.100;2022-08-19T00:59:58;13.23;;;12.50;;
22068;SDS011;13887;57.196;-2.100;2022-08-19T01:02:29;12.43;;;11.83;;
22068;SDS011;13887;57.196;-2.100;2022-08-19T01:04:57;12.80;;;12.03;;
22068;SDS011;13887;57.196;-2.100;2022-08-19T01:07:27;12.87;;;12.17;;
22068;SDS011;13887;57.196;-2.100;2022-08-19T01:10:04;13.07;;;12.23;;
22068;SDS011;13887;57.196;-2.100;2022-08-19T01:12:33;13.10;;;12.30;;
22068;SDS011;13887;57.196;-2.100;2022-08-19T01:15:01;12.73;;;11.93;;
22068;SDS011;13887;57.196;-2.100;2022-08-19T01:17:28;12.97;;;12.07;;
22068;SDS011;13887;57.196;-2.100;2022-08-19T01:19:56;12.70;;;12.10;;
22068;SDS011;13887;57.196;-2.100;2022-08-19T01:24:58;13.93;;;12.90;;
22068;SDS011;13887;57.196;-2.100;2022-08-19T01:27:25;13.30;;;12.60;;
22068;SDS011;13887;57.196;-2.100;2022-08-19T01:30:08;13.00;;;12.40;;
22068;SDS011;13887;57.196;-2.100;2022-08-19T01:32:36;13.17;;;12.50;;
22068;SDS011;13887;57.196;-2.100;2022-08-19T01:35:03;13.30;;;12.50;;
22068;SDS011;13887;57.196;-2.100;2022-08-19T01:37:41;13.93;;;12.90;;
22068;SDS011;13887;57.196;-2.100;2022-08-19T01:40:14;12.90;;;12.13;;
22068;SDS011;13887;57.196;-2.100;2022-08-19T01:42:42;13.17;;;12.47;;
22068;SDS011;13887;57.196;-2.100;2022-08-19T01:45:09;13.67;;;12.60;;
22068;SDS011;13887;57.196;-2.100;2022-08-19T01:47:36;13.57;;;12.43;;
22068;SDS011;13887;57.196;-2.100;2022-08-19T01:50:04;12.23;;;11.67;;
22068;SDS011;13887;57.196;-2.100;2022-08-19T01:52:34;12.23;;;11.53;;
22068;SDS011;13887;57.196;-2.100;2022-08-19T01:55:04;12.80;;;12.03;;
22068;SDS011;13887;57.196;-2.100;2022-08-19T01:57:34;13.30;;;12.20;;
22068;SDS011;13887;57.196;-2.100;2022-08-19T02:00:04;13.53;;;12.73;;
22068;SDS011;13887;57.196;-2.100;2022-08-19T02:02:36;13.43;;;12.53;;
22068;SDS011;13887;57.196;-2.100;2022-08-19T02:05:04;13.97;;;12.97;;
22068;SDS011;13887;57.196;-2.100;2022-08-19T02:07:36;14.33;;;13.17;;
22068;SDS011;13887;57.196;-2.100;2022-08-19T02:10:08;13.80;;;12.90;;
22068;SDS011;13887;57.196;-2.100;2022-08-19T02:12:41;14.37;;;13.27;;
22068;SDS011;13887;57.196;-2.100;2022-08-19T02:15:08;14.00;;;12.90;;
22068;SDS011;13887;57.196;-2.100;2022-08-19T02:17:36;14.50;;;13.70;;
22068;SDS011;13887;57.196;-2.100;2022-08-19T02:20:03;13.80;;;13.00;;
22068;SDS011;13887;57.196;-2.100;2022-08-19T02:22:32;14.73;;;13.57;;
22068;SDS011;13887;57.196;-2.100;2022-08-19T02:25:00;14.03;;;13.13;;
22068;SDS011;13887;57.196;-2.100;2022-08-19T02:27:27;14.00;;;13.10;;
22068;SDS011;13887;57.196;-2.100;2022-08-19T02:29:55;13.57;;;12.87;;
22068;SDS011;13887;57.196;-2.100;2022-08-19T02:32:22;13.53;;;12.77;;
22068;SDS011;13887;57.196;-2.100;2022-08-19T02:34:49;13.90;;;13.00;;
22068;SDS011;13887;57.196;-2.100;2022-08-19T02:37:16;14.13;;;13.00;;
22068;SDS011;13887;57.196;-2.100;2022-08-19T02:40:02;13.33;;;12.50;;
22068;SDS011;13887;57.196;-2.100;2022-08-19T02:42:38;13.73;;;12.80;;
22068;SDS011;13887;57.196;-2.100;2022-08-19T02:45:07;13.93;;;13.23;;
22068;SDS011;13887;57.196;-2.100;2022-08-19T02:47:34;13.43;;;12.73;;
22068;SDS011;13887;57.196;-2.100;2022-08-19T02:50:01;13.70;;;12.90;;
22068;SDS011;13887;57.196;-2.100;2022-08-19T02:52:31;13.33;;;12.50;;
22068;SDS011;13887;57.196;-2.100;2022-08-19T02:54:59;13.27;;;12.33;;
22068;SDS011;13887;57.196;-2.100;2022-08-19T02:57:27;13.10;;;12.40;;
22068;SDS011;13887;57.196;-2.100;2022-08-19T02:59:57;13.13;;;12.43;;
22068;SDS011;13887;57.196;-2.100;2022-08-19T03:02:25;13.27;;;12.43;;
22068;SDS011;13887;57.196;-2.100;2022-08-19T03:04:52;13.80;;;12.80;;
22068;SDS011;13887;57.196;-2.100;2022-08-19T03:07:18;13.67;;;12.93;;
22068;SDS011;13887;57.196;-2.100;2022-08-19T03:09:45;13.20;;;12.47;;
22068;SDS011;13887;57.196;-2.100;2022-08-19T03:12:12;13.57;;;12.47;;
22068;SDS011;13887;57.196;-2.100;2022-08-19T03:14:39;13.77;;;12.70;;
22068;SDS011;13887;57.196;-2.100;2022-08-19T03:17:06;14.33;;;13.27;;
22068;SDS011;13887;57.196;-2.100;2022-08-19T03:19:34;14.20;;;13.10;;
22068;SDS011;13887;57.196;-2.100;2022-08-19T03:22:01;14.07;;;12.90;;
22068;SDS011;13887;57.196;-2.100;2022-08-19T03:24:29;13.73;;;12.60;;
22068;SDS011;13887;57.196;-2.100;2022-08-19T03:26:57;13.77;;;12.60;;
22068;SDS011;13887;57.196;-2.100;2022-08-19T03:29:28;14.07;;;12.80;;
22068;SDS011;13887;57.196;-2.100;2022-08-19T03:32:01;13.40;;;12.60;;
22068;SDS011;13887;57.196;-2.100;2022-08-19T03:34:31;14.13;;;13.27;;
22068;SDS011;13887;57.196;-2.100;2022-08-19T03:37:03;13.93;;;13.03;;
22068;SDS011;13887;57.196;-2.100;2022-08-19T03:39:36;13.60;;;12.70;;
22068;SDS011;13887;57.196;-2.100;2022-08-19T03:42:04;14.70;;;13.40;;
22068;SDS011;13887;57.196;-2.100;2022-08-19T03:44:51;13.67;;;12.87;;
22068;SDS011;13887;57.196;-2.100;2022-08-19T03:47:18;13.23;;;12.33;;
22068;SDS011;13887;57.196;-2.100;2022-08-19T03:49:45;12.90;;;12.03;;
22068;SDS011;13887;57.196;-2.100;2022-08-19T03:52:12;12.80;;;12.20;;
22068;SDS011;13887;57.196;-2.100;2022-08-19T03:54:40;13.63;;;12.63;;
22068;SDS011;13887;57.196;-2.100;2022-08-19T03:57:08;12.93;;;12.23;;
22068;SDS011;13887;57.196;-2.100;2022-08-19T03:59:35;13.00;;;12.20;;
22068;SDS011;13887;57.196;-2.100;2022-08-19T04:02:05;14.03;;;13.03;;
22068;SDS011;13887;57.196;-2.100;2022-08-19T04:04:39;13.60;;;12.73;;
22068;SDS011;13887;57.196;-2.100;2022-08-19T04:07:08;13.50;;;12.60;;
22068;SDS011;13887;57.196;-2.100;2022-08-19T04:09:36;13.10;;;12.50;;
22068;SDS011;13887;57.196;-2.100;2022-08-19T04:12:04;13.27;;;12.47;;
22068;SDS011;13887;57.196;-2.100;2022-08-19T04:14:32;13.73;;;12.93;;
22068;SDS011;13887;57.196;-2.100;2022-08-19T04:17:00;13.30;;;12.50;;
22068;SDS011;13887;57.196;-2.100;2022-08-19T04:19:32;13.30;;;12.50;;
22068;SDS011;13887;57.196;-2.100;2022-08-19T04:22:00;13.23;;;12.43;;
22068;SDS011;13887;57.196;-2.100;2022-08-19T04:24:27;13.93;;;12.93;;
22068;SDS011;13887;57.196;-2.100;2022-08-19T04:26:54;14.00;;;13.20;;
22068;SDS011;13887;57.196;-2.100;2022-08-19T04:29:23;14.00;;;13.10;;
22068;SDS011;13887;57.196;-2.100;2022-08-19T04:31:52;14.23;;;13.07;;
22068;SDS011;13887;57.196;-2.100;2022-08-19T04:34:23;14.53;;;13.70;;
22068;SDS011;13887;57.196;-2.100;2022-08-19T04:36:52;14.27;;;13.27;;
22068;SDS011;13887;57.196;-2.100;2022-08-19T04:39:21;13.83;;;12.90;;
22068;SDS011;13887;57.196;-2.100;2022-08-19T04:42:10;13.53;;;12.80;;
22068;SDS011;13887;57.196;-2.100;2022-08-19T04:44:56;14.13;;;13.30;;
22068;SDS011;13887;57.196;-2.100;2022-08-19T04:47:25;13.27;;;12.47;;
22068;SDS011;13887;57.196;-2.100;2022-08-19T04:50:12;14.30;;;13.40;;
22068;SDS011;13887;57.196;-2.100;2022-08-19T04:52:44;13.90;;;13.00;;
22068;SDS011;13887;57.196;-2.100;2022-08-19T04:55:11;13.97;;;13.20;;
22068;SDS011;13887;57.196;-2.100;2022-08-19T04:57:38;14.53;;;13.53;;
22068;SDS011;13887;57.196;-2.100;2022-08-19T05:00:07;14.13;;;13.43;;
22068;SDS011;13887;57.196;-2.100;2022-08-19T05:02:37;15.60;;;14.10;;
22068;SDS011;13887;57.196;-2.100;2022-08-19T05:05:04;14.37;;;13.60;;
22068;SDS011;13887;57.196;-2.100;2022-08-19T05:07:32;16.10;;;14.93;;
22068;SDS011;13887;57.196;-2.100;2022-08-19T05:09:59;14.70;;;13.70;;
22068;SDS011;13887;57.196;-2.100;2022-08-19T05:12:27;14.47;;;13.57;;
22068;SDS011;13887;57.196;-2.100;2022-08-19T05:14:55;14.17;;;13.13;;
22068;SDS011;13887;57.196;-2.100;2022-08-19T05:17:27;14.60;;;13.60;;
22068;SDS011;13887;57.196;-2.100;2022-08-19T05:20:02;15.37;;;14.27;;
22068;SDS011;13887;57.196;-2.100;2022-08-19T05:22:48;14.63;;;13.70;;
22068;SDS011;13887;57.196;-2.100;2022-08-19T05:25:17;14.77;;;13.60;;
22068;SDS011;13887;57.196;-2.100;2022-08-19T05:27:46;14.53;;;13.57;;
22068;SDS011;13887;57.196;-2.100;2022-08-19T05:30:14;14.13;;;13.17;;
22068;SDS011;13887;57.196;-2.100;2022-08-19T05:32:41;14.70;;;13.63;;
22068;SDS011;13887;57.196;-2.100;2022-08-19T05:35:09;14.77;;;13.47;;
22068;SDS011;13887;57.196;-2.100;2022-08-19T05:37:37;14.60;;;13.70;;
22068;SDS011;13887;57.196;-2.100;2022-08-19T05:40:07;14.63;;;13.67;;
22068;SDS011;13887;57.196;-2.100;2022-08-19T05:42:35;14.37;;;13.50;;
22068;SDS011;13887;57.196;-2.100;2022-08-19T05:45:02;14.43;;;13.53;;
22068;SDS011;13887;57.196;-2.100;2022-08-19T05:47:30;14.80;;;13.80;;
22068;SDS011;13887;57.196;-2.100;2022-08-19T05:49:58;13.73;;;12.83;;
22068;SDS011;13887;57.196;-2.100;2022-08-19T05:52:25;14.87;;;13.77;;
22068;SDS011;13887;57.196;-2.100;2022-08-19T05:54:53;14.97;;;13.80;;
22068;SDS011;13887;57.196;-2.100;2022-08-19T05:57:22;14.60;;;13.73;;
22068;SDS011;13887;57.196;-2.100;2022-08-19T05:59:50;15.17;;;14.03;;
22068;SDS011;13887;57.196;-2.100;2022-08-19T06:02:25;14.47;;;13.70;;
22068;SDS011;13887;57.196;-2.100;2022-08-19T06:04:52;14.83;;;13.80;;
22068;SDS011;13887;57.196;-2.100;2022-08-19T06:07:19;14.13;;;13.33;;
22068;SDS011;13887;57.196;-2.100;2022-08-19T06:09:46;14.67;;;13.50;;
22068;SDS011;13887;57.196;-2.100;2022-08-19T06:12:25;14.60;;;13.63;;
22068;SDS011;13887;57.196;-2.100;2022-08-19T06:14:55;14.47;;;13.47;;
22068;SDS011;13887;57.196;-2.100;2022-08-19T06:17:26;14.90;;;14.03;;
22068;SDS011;13887;57.196;-2.100;2022-08-19T06:19:55;14.93;;;14.00;;
22068;SDS011;13887;57.196;-2.100;2022-08-19T06:22:22;15.07;;;13.97;;
22068;SDS011;13887;57.196;-2.100;2022-08-19T06:24:50;14.13;;;13.30;;
22068;SDS011;13887;57.196;-2.100;2022-08-19T06:27:19;14.33;;;13.47;;
22068;SDS011;13887;57.196;-2.100;2022-08-19T06:29:47;14.50;;;13.60;;
22068;SDS011;13887;57.196;-2.100;2022-08-19T06:32:15;13.93;;;12.93;;
22068;SDS011;13887;57.196;-2.100;2022-08-19T06:34:42;13.70;;;12.90;;
22068;SDS011;13887;57.196;-2.100;2022-08-19T06:37:10;13.53;;;12.80;;
22068;SDS011;13887;57.196;-2.100;2022-08-19T06:39:38;14.03;;;13.10;;
22068;SDS011;13887;57.196;-2.100;2022-08-19T06:42:06;14.10;;;13.07;;
22068;SDS011;13887;57.196;-2.100;2022-08-19T06:44:37;14.47;;;13.40;;
22068;SDS011;13887;57.196;-2.100;2022-08-19T06:47:10;13.63;;;12.80;;
22068;SDS011;13887;57.196;-2.100;2022-08-19T06:49:40;13.60;;;12.80;;
22068;SDS011;13887;57.196;-2.100;2022-08-19T06:52:10;14.57;;;13.53;;
22068;SDS011;13887;57.196;-2.100;2022-08-19T06:54:41;13.87;;;12.93;;
22068;SDS011;13887;57.196;-2.100;2022-08-19T06:57:25;14.40;;;13.50;;
22068;SDS011;13887;57.196;-2.100;2022-08-19T06:59:53;14.30;;;13.40;;
22068;SDS011;13887;57.196;-2.100;2022-08-19T07:02:22;13.97;;;13.17;;
22068;SDS011;13887;57.196;-2.100;2022-08-19T07:04:53;14.63;;;13.67;;
22068;SDS011;13887;57.196;-2.100;2022-08-19T07:07:20;14.57;;;13.47;;
22068;SDS011;13887;57.196;-2.100;2022-08-19T07:09:49;13.67;;;12.97;;
22068;SDS011;13887;57.196;-2.100;2022-08-19T07:12:27;13.87;;;13.17;;
22068;SDS011;13887;57.196;-2.100;2022-08-19T07:14:56;13.80;;;13.10;;
22068;SDS011;13887;57.196;-2.100;2022-08-19T07:17:24;14.63;;;13.73;;
22068;SDS011;13887;57.196;-2.100;2022-08-19T07:19:52;14.57;;;13.87;;
22068;SDS011;13887;57.196;-2.100;2022-08-19T07:22:20;14.67;;;13.87;;
22068;SDS011;13887;57.196;-2.100;2022-08-19T07:24:50;15.20;;;14.00;;
22068;SDS011;13887;57.196;-2.100;2022-08-19T07:27:18;14.40;;;13.60;;
22068;SDS011;13887;57.196;-2.100;2022-08-19T07:29:51;14.33;;;13.43;;
22068;SDS011;13887;57.196;-2.100;2022-08-19T07:32:21;14.73;;;13.87;;
22068;SDS011;13887;57.196;-2.100;2022-08-19T07:34:49;14.53;;;13.73;;
22068;SDS011;13887;57.196;-2.100;2022-08-19T07:37:16;14.40;;;13.70;;
22068;SDS011;13887;57.196;-2.100;2022-08-19T07:39:43;15.10;;;14.17;;
22068;SDS011;13887;57.196;-2.100;2022-08-19T07:42:10;13.97;;;13.20;;
22068;SDS011;13887;57.196;-2.100;2022-08-19T07:44:39;14.23;;;13.43;;
22068;SDS011;13887;57.196;-2.100;2022-08-19T07:47:12;13.87;;;13.10;;
22068;SDS011;13887;57.196;-2.100;2022-08-19T07:50:03;14.00;;;13.07;;
22068;SDS011;13887;57.196;-2.100;2022-08-19T07:52:33;14.67;;;13.90;;
22068;SDS011;13887;57.196;-2.100;2022-08-19T07:55:03;13.47;;;12.83;;
22068;SDS011;13887;57.196;-2.100;2022-08-19T07:57:31;13.73;;;12.93;;
22068;SDS011;13887;57.196;-2.100;2022-08-19T07:59:58;13.53;;;12.80;;
22068;SDS011;13887;57.196;-2.100;2022-08-19T08:02:25;12.60;;;12.00;;
22068;SDS011;13887;57.196;-2.100;2022-08-19T08:04:52;14.00;;;13.10;;
22068;SDS011;13887;57.196;-2.100;2022-08-19T08:07:38;13.63;;;12.90;;
22068;SDS011;13887;57.196;-2.100;2022-08-19T08:10:24;13.53;;;12.93;;
22068;SDS011;13887;57.196;-2.100;2022-08-19T08:12:52;14.87;;;13.60;;
22068;SDS011;13887;57.196;-2.100;2022-08-19T08:15:36;13.57;;;12.97;;
22068;SDS011;13887;57.196;-2.100;2022-08-19T08:18:09;13.93;;;13.30;;
22068;SDS011;13887;57.196;-2.100;2022-08-19T08:20:38;14.30;;;13.60;;
22068;SDS011;13887;57.196;-2.100;2022-08-19T08:23:05;14.30;;;13.30;;
22068;SDS011;13887;57.196;-2.100;2022-08-19T08:25:55;13.50;;;12.53;;
22068;SDS011;13887;57.196;-2.100;2022-08-19T08:28:23;14.30;;;13.37;;
22068;SDS011;13887;57.196;-2.100;2022-08-19T08:30:55;13.80;;;13.20;;
22068;SDS011;13887;57.196;-2.100;2022-08-19T08:33:24;14.10;;;13.20;;
22068;SDS011;13887;57.196;-2.100;2022-08-19T08:36:06;13.43;;;12.73;;
22068;SDS011;13887;57.196;-2.100;2022-08-19T08:38:34;13.30;;;12.57;;
22068;SDS011;13887;57.196;-2.100;2022-08-19T08:41:26;13.30;;;12.60;;
22068;SDS011;13887;57.196;-2.100;2022-08-19T08:44:00;13.90;;;13.30;;
22068;SDS011;13887;57.196;-2.100;2022-08-19T08:46:35;13.90;;;13.10;;
22068;SDS011;13887;57.196;-2.100;2022-08-19T08:52:26;13.10;;;12.30;;
22068;SDS011;13887;57.196;-2.100;2022-08-19T08:54:59;12.80;;;12.10;;
22068;SDS011;13887;57.196;-2.100;2022-08-19T08:57:45;13.20;;;12.50;;
22068;SDS011;13887;57.196;-2.100;2022-08-19T09:00:19;14.13;;;13.30;;
22068;SDS011;13887;57.196;-2.100;2022-08-19T09:02:47;13.27;;;12.57;;
22068;SDS011;13887;57.196;-2.100;2022-08-19T09:05:16;13.63;;;12.93;;
22068;SDS011;13887;57.196;-2.100;2022-08-19T09:10:56;13.23;;;12.63;;
22068;SDS011;13887;57.196;-2.100;2022-08-19T09:16:17;12.80;;;11.90;;
22068;SDS011;13887;57.196;-2.100;2022-08-19T09:18:57;12.83;;;12.23;;
22068;SDS011;13887;57.196;-2.100;2022-08-19T09:21:32;13.00;;;12.50;;
22068;SDS011;13887;57.196;-2.100;2022-08-19T09:24:00;13.00;;;12.30;;
22068;SDS011;13887;57.196;-2.100;2022-08-19T09:26:29;12.80;;;12.13;;
22068;SDS011;13887;57.196;-2.100;2022-08-19T09:29:18;13.27;;;12.47;;
22068;SDS011;13887;57.196;-2.100;2022-08-19T09:31:48;13.60;;;12.90;;
22068;SDS011;13887;57.196;-2.100;2022-08-19T09:34:16;13.37;;;12.67;;
22068;SDS011;13887;57.196;-2.100;2022-08-19T09:36:47;13.17;;;12.50;;
22068;SDS011;13887;57.196;-2.100;2022-08-19T09:39:20;13.07;;;12.47;;
22068;SDS011;13887;57.196;-2.100;2022-08-19T09:41:47;12.67;;;12.07;;
22068;SDS011;13887;57.196;-2.100;2022-08-19T09:44:16;13.33;;;12.73;;
22068;SDS011;13887;57.196;-2.100;2022-08-19T09:46:44;13.07;;;12.47;;
22068;SDS011;13887;57.196;-2.100;2022-08-19T09:49:14;13.20;;;12.50;;
22068;SDS011;13887;57.196;-2.100;2022-08-19T09:51:44;13.33;;;12.63;;
22068;SDS011;13887;57.196;-2.100;2022-08-19T09:54:16;12.63;;;11.93;;
22068;SDS011;13887;57.196;-2.100;2022-08-19T09:56:51;12.90;;;12.20;;
22068;SDS011;13887;57.196;-2.100;2022-08-19T09:59:19;12.80;;;12.13;;
22068;SDS011;13887;57.196;-2.100;2022-08-19T10:01:47;12.97;;;12.27;;
22068;SDS011;13887;57.196;-2.100;2022-08-19T10:04:14;13.40;;;12.80;;
22068;SDS011;13887;57.196;-2.100;2022-08-19T10:06:47;14.87;;;12.67;;
22068;SDS011;13887;57.196;-2.100;2022-08-19T10:09:19;12.83;;;12.13;;
22068;SDS011;13887;57.196;-2.100;2022-08-19T10:12:00;12.77;;;12.17;;
22068;SDS011;13887;57.196;-2.100;2022-08-19T10:14:29;14.07;;;13.07;;
22068;SDS011;13887;57.196;-2.100;2022-08-19T10:16:56;12.73;;;12.00;;
22068;SDS011;13887;57.196;-2.100;2022-08-19T10:19:24;12.60;;;12.00;;
22068;SDS011;13887;57.196;-2.100;2022-08-19T10:21:52;12.97;;;12.27;;
22068;SDS011;13887;57.196;-2.100;2022-08-19T10:24:25;12.83;;;12.03;;
22068;SDS011;13887;57.196;-2.100;2022-08-19T10:26:54;12.57;;;11.97;;
22068;SDS011;13887;57.196;-2.100;2022-08-19T10:29:24;12.67;;;11.93;;
22068;SDS011;13887;57.196;-2.100;2022-08-19T10:31:59;12.50;;;11.90;;
22068;SDS011;13887;57.196;-2.100;2022-08-19T10:34:29;12.93;;;12.20;;
22068;SDS011;13887;57.196;-2.100;2022-08-19T10:36:57;12.47;;;11.93;;
22068;SDS011;13887;57.196;-2.100;2022-08-19T10:39:27;12.93;;;12.30;;
22068;SDS011;13887;57.196;-2.100;2022-08-19T10:41:58;12.73;;;12.13;;
22068;SDS011;13887;57.196;-2.100;2022-08-19T10:44:26;13.40;;;12.70;;
22068;SDS011;13887;57.196;-2.100;2022-08-19T10:46:58;13.23;;;12.33;;
22068;SDS011;13887;57.196;-2.100;2022-08-19T10:49:25;13.00;;;12.47;;
22068;SDS011;13887;57.196;-2.100;2022-08-19T10:51:53;13.07;;;12.40;;
22068;SDS011;13887;57.196;-2.100;2022-08-19T10:54:45;12.10;;;11.63;;
22068;SDS011;13887;57.196;-2.100;2022-08-19T10:57:34;12.57;;;12.07;;
22068;SDS011;13887;57.196;-2.100;2022-08-19T11:00:21;12.83;;;12.23;;
22068;SDS011;13887;57.196;-2.100;2022-08-19T11:02:50;12.90;;;12.13;;
22068;SDS011;13887;57.196;-2.100;2022-08-19T11:05:18;12.40;;;11.70;;
22068;SDS011;13887;57.196;-2.100;2022-08-19T11:07:45;12.93;;;12.33;;
22068;SDS011;13887;57.196;-2.100;2022-08-19T11:10:13;13.30;;;12.70;;
22068;SDS011;13887;57.196;-2.100;2022-08-19T11:12:47;12.47;;;11.87;;
22068;SDS011;13887;57.196;-2.100;2022-08-19T11:15:14;12.20;;;11.70;;
22068;SDS011;13887;57.196;-2.100;2022-08-19T11:17:41;12.60;;;12.00;;
22068;SDS011;13887;57.196;-2.100;2022-08-19T11:20:13;12.53;;;12.03;;
22068;SDS011;13887;57.196;-2.100;2022-08-19T11:22:41;13.30;;;12.70;;
22068;SDS011;13887;57.196;-2.100;2022-08-19T11:25:09;13.53;;;12.90;;
22068;SDS011;13887;57.196;-2.100;2022-08-19T11:27:38;12.93;;;12.33;;
22068;SDS011;13887;57.196;-2.100;2022-08-19T11:30:09;13.13;;;12.57;;
22068;SDS011;13887;57.196;-2.100;2022-08-19T11:32:39;13.40;;;12.70;;
22068;SDS011;13887;57.196;-2.100;2022-08-19T11:35:14;12.93;;;12.43;;
22068;SDS011;13887;57.196;-2.100;2022-08-19T11:37:42;13.40;;;12.70;;
22068;SDS011;13887;57.196;-2.100;2022-08-19T11:40:09;13.10;;;12.47;;
22068;SDS011;13887;57.196;-2.100;2022-08-19T11:42:36;13.57;;;12.73;;
22068;SDS011;13887;57.196;-2.100;2022-08-19T11:45:26;12.63;;;12.00;;
22068;SDS011;13887;57.196;-2.100;2022-08-19T11:47:54;12.97;;;12.37;;
22068;SDS011;13887;57.196;-2.100;2022-08-19T11:50:22;12.50;;;12.00;;
22068;SDS011;13887;57.196;-2.100;2022-08-19T11:52:52;13.17;;;12.57;;
22068;SDS011;13887;57.196;-2.100;2022-08-19T11:55:21;13.10;;;12.50;;
22068;SDS011;13887;57.196;-2.100;2022-08-19T11:57:48;13.50;;;12.90;;
22068;SDS011;13887;57.196;-2.100;2022-08-19T12:00:17;13.70;;;13.00;;
22068;SDS011;13887;57.196;-2.100;2022-08-19T12:02:44;13.50;;;12.90;;
22068;SDS011;13887;57.196;-2.100;2022-08-19T12:05:11;13.23;;;12.63;;
22068;SDS011;13887;57.196;-2.100;2022-08-19T12:07:39;13.00;;;12.40;;
22068;SDS011;13887;57.196;-2.100;2022-08-19T12:10:10;12.90;;;12.23;;
22068;SDS011;13887;57.196;-2.100;2022-08-19T12:12:37;13.80;;;13.00;;
22068;SDS011;13887;57.196;-2.100;2022-08-19T12:15:10;13.43;;;12.77;;
22068;SDS011;13887;57.196;-2.100;2022-08-19T12:17:38;13.90;;;13.27;;
22068;SDS011;13887;57.196;-2.100;2022-08-19T12:20:05;12.83;;;12.23;;
22068;SDS011;13887;57.196;-2.100;2022-08-19T12:22:35;13.33;;;12.80;;
22068;SDS011;13887;57.196;-2.100;2022-08-19T12:25:04;13.07;;;12.43;;
22068;SDS011;13887;57.196;-2.100;2022-08-19T12:27:31;13.53;;;12.80;;
22068;SDS011;13887;57.196;-2.100;2022-08-19T12:30:08;12.07;;;11.57;;
22068;SDS011;13887;57.196;-2.100;2022-08-19T12:32:37;13.67;;;13.00;;
22068;SDS011;13887;57.196;-2.100;2022-08-19T12:35:05;13.57;;;12.50;;
22068;SDS011;13887;57.196;-2.100;2022-08-19T12:37:33;12.50;;;11.90;;
22068;SDS011;13887;57.196;-2.100;2022-08-19T12:40:00;13.20;;;12.50;;
22068;SDS011;13887;57.196;-2.100;2022-08-19T12:42:28;13.27;;;12.57;;
22068;SDS011;13887;57.196;-2.100;2022-08-19T12:44:56;13.67;;;12.93;;
22068;SDS011;13887;57.196;-2.100;2022-08-19T12:47:23;13.90;;;13.03;;
22068;SDS011;13887;57.196;-2.100;2022-08-19T12:49:52;13.73;;;13.10;;
22068;SDS011;13887;57.196;-2.100;2022-08-19T12:52:25;13.83;;;13.23;;
22068;SDS011;13887;57.196;-2.100;2022-08-19T12:54:54;13.40;;;12.80;;
22068;SDS011;13887;57.196;-2.100;2022-08-19T12:57:23;14.03;;;13.07;;
22068;SDS011;13887;57.196;-2.100;2022-08-19T13:00:03;13.80;;;13.20;;
22068;SDS011;13887;57.196;-2.100;2022-08-19T13:02:40;14.03;;;13.33;;
22068;SDS011;13887;57.196;-2.100;2022-08-19T13:05:11;14.17;;;13.30;;
22068;SDS011;13887;57.196;-2.100;2022-08-19T13:07:42;14.77;;;13.87;;
22068;SDS011;13887;57.196;-2.100;2022-08-19T13:10:13;13.77;;;13.17;;
22068;SDS011;13887;57.196;-2.100;2022-08-19T13:12:42;14.70;;;13.90;;
22068;SDS011;13887;57.196;-2.100;2022-08-19T13:15:10;14.20;;;13.60;;
22068;SDS011;13887;57.196;-2.100;2022-08-19T13:17:40;13.90;;;13.33;;
22068;SDS011;13887;57.196;-2.100;2022-08-19T13:20:08;14.27;;;13.47;;
22068;SDS011;13887;57.196;-2.100;2022-08-19T13:22:38;15.60;;;14.73;;
22068;SDS011;13887;57.196;-2.100;2022-08-19T13:25:05;14.70;;;13.80;;
22068;SDS011;13887;57.196;-2.100;2022-08-19T13:27:33;14.77;;;13.90;;
22068;SDS011;13887;57.196;-2.100;2022-08-19T13:30:00;15.67;;;14.30;;
22068;SDS011;13887;57.196;-2.100;2022-08-19T13:32:46;14.17;;;13.47;;
22068;SDS011;13887;57.196;-2.100;2022-08-19T13:35:32;14.70;;;13.90;;
22068;SDS011;13887;57.196;-2.100;2022-08-19T13:37:59;14.97;;;14.13;;
22068;SDS011;13887;57.196;-2.100;2022-08-19T13:40:27;14.80;;;14.00;;
22068;SDS011;13887;57.196;-2.100;2022-08-19T13:43:02;14.10;;;13.30;;
22068;SDS011;13887;57.196;-2.100;2022-08-19T13:45:48;14.33;;;13.63;;
22068;SDS011;13887;57.196;-2.100;2022-08-19T13:48:23;14.50;;;13.63;;
22068;SDS011;13887;57.196;-2.100;2022-08-19T13:50:51;15.33;;;14.37;;
22068;SDS011;13887;57.196;-2.100;2022-08-19T13:53:18;14.10;;;13.40;;
22068;SDS011;13887;57.196;-2.100;2022-08-19T13:55:45;14.40;;;13.70;;
22068;SDS011;13887;57.196;-2.100;2022-08-19T13:58:12;14.10;;;13.50;;
22068;SDS011;13887;57.196;-2.100;2022-08-19T14:00:44;14.47;;;13.80;;
22068;SDS011;13887;57.196;-2.100;2022-08-19T14:03:13;14.40;;;13.70;;
22068;SDS011;13887;57.196;-2.100;2022-08-19T14:05:40;14.27;;;13.60;;
22068;SDS011;13887;57.196;-2.100;2022-08-19T14:08:08;13.97;;;13.30;;
22068;SDS011;13887;57.196;-2.100;2022-08-19T14:10:35;14.27;;;13.67;;
22068;SDS011;13887;57.196;-2.100;2022-08-19T14:13:03;14.57;;;13.87;;
22068;SDS011;13887;57.196;-2.100;2022-08-19T14:15:30;13.90;;;13.30;;
22068;SDS011;13887;57.196;-2.100;2022-08-19T14:17:57;14.10;;;13.40;;
22068;SDS011;13887;57.196;-2.100;2022-08-19T14:20:24;14.60;;;13.90;;
22068;SDS011;13887;57.196;-2.100;2022-08-19T14:22:52;14.83;;;13.80;;
22068;SDS011;13887;57.196;-2.100;2022-08-19T14:25:22;14.20;;;13.47;;
22068;SDS011;13887;57.196;-2.100;2022-08-19T14:27:52;14.13;;;13.50;;
22068;SDS011;13887;57.196;-2.100;2022-08-19T14:30:21;13.77;;;13.23;;
22068;SDS011;13887;57.196;-2.100;2022-08-19T14:32:49;13.93;;;13.17;;
22068;SDS011;13887;57.196;-2.100;2022-08-19T14:35:16;14.50;;;13.80;;
22068;SDS011;13887;57.196;-2.100;2022-08-19T14:37:44;15.03;;;14.23;;
22068;SDS011;13887;57.196;-2.100;2022-08-19T14:40:13;14.43;;;13.73;;
22068;SDS011;13887;57.196;-2.100;2022-08-19T14:42:43;14.40;;;13.30;;